Home > Products > Valid Products > TAF

000
FTUS42 TJSJ 292300 RRA
TAFKPK
TAF
TKPK 292345Z 3000/3024 08008KT P6SM FEW022
     FM301300 09014KT P6SM FEW024
     FM302300 08008KT P6SM FEW025
      AMD NOT SKED 3002/3011=



000
FTUS42 TJSJ 292300 RRA
TAFNCM
TAF
TNCM 292345Z 3000/3024 11010KT P6SM FEW020
     FM302300 09008KT P6SM FEW025=



000
FTUS42 TJSJ 292300 RRA
TAFISX
TAF
TISX 292345Z 3000/3024 09006KT P6SM FEW030
     FM301300 12009KT P6SM FEW030
     FM302300 07006KT P6SM FEW025
      AMD NOT SKED=



000
FTUS42 TJSJ 292300 RRA
TAFJPS
TAF
TJPS 292345Z 3000/3024 05004KT P6SM FEW030 SCT050
     FM301330 16010KT P6SM FEW030
     FM302330 07007KT P6SM FEW030 SCT050
      AMD NOT SKED TIL 300300=



000
FTUS42 TJSJ 292300 RRA
TAFJBQ
TAF
TJBQ 292345Z 3000/3024 07004KT P6SM BKN060
     FM300300 11003KT P6SM FEW050
     FM301300 06013KT P6SM FEW030
     FM302300 10005KT P6SM SCT025 SCT060
      AMD NOT SKED 3002/3011=



000
FTUS42 TJSJ 292300 RRA
TAFJMZ
TAF
TJMZ 292345Z 3000/3024 10005KT P6SM VCSH BKN040 OVC070
     FM300300 06005KT P6SM FEW040
     FM301400 24008KT P6SM SCT040
     FM302200 06006KT P6SM SCT025 SCT040
      AMD NOT SKED=



000
FTUS42 TJSJ 292300 RRA
TAFJSJ
TAF
TJSJ 292345Z 3000/3024 11003KT P6SM FEW030 SCT070
     FM301300 07013KT P6SM FEW030
     FM302200 10006KT P6SM SCT030=



000
FTUS42 TJSJ 292300 RRA
TAFIST
TAF
TIST 292345Z 3000/3024 09007KT P6SM FEW030
     FM301300 13009KT P6SM FEW030
     FM302300 09008KT P6SM FEW025
      AMD NOT SKED=



000
FTUS42 TJSJ 292300 RRA
TAFNCM
TAF
TNCM 292345Z 3000/3024 11010KT P6SM FEW020
     FM302300 09008KT P6SM FEW025=



000
FTUS42 TJSJ 292300 RRA
TAFJPS
TAF
TJPS 292345Z 3000/3024 05004KT P6SM FEW030 SCT050
     FM301330 16010KT P6SM FEW030
     FM302330 07007KT P6SM FEW030 SCT050
      AMD NOT SKED TIL 300300=



000
FTUS42 TJSJ 292300 RRA
TAFISX
TAF
TISX 292345Z 3000/3024 09006KT P6SM FEW030
     FM301300 12009KT P6SM FEW030
     FM302300 07006KT P6SM FEW025
      AMD NOT SKED=



000
FTUS42 TJSJ 292300 RRA
TAFIST
TAF
TIST 292345Z 3000/3024 09007KT P6SM FEW030
     FM301300 13009KT P6SM FEW030
     FM302300 09008KT P6SM FEW025
      AMD NOT SKED=



000
FTUS42 TJSJ 292300 RRA
TAFJSJ
TAF
TJSJ 292345Z 3000/3024 11003KT P6SM FEW030 SCT070
     FM301300 07013KT P6SM FEW030
     FM302200 10006KT P6SM SCT030=



000
FTUS42 TJSJ 292300 RRA
TAFKPK
TAF
TKPK 292345Z 3000/3024 08008KT P6SM FEW022
     FM301300 09014KT P6SM FEW024
     FM302300 08008KT P6SM FEW025
      AMD NOT SKED 3002/3011=



000
FTUS42 TJSJ 292300 RRA
TAFJBQ
TAF
TJBQ 292345Z 3000/3024 07004KT P6SM BKN060
     FM300300 11003KT P6SM FEW050
     FM301300 06013KT P6SM FEW030
     FM302300 10005KT P6SM SCT025 SCT060
      AMD NOT SKED 3002/3011=



000
FTUS42 TJSJ 292300 RRA
TAFJMZ
TAF
TJMZ 292345Z 3000/3024 10005KT P6SM VCSH BKN040 OVC070
     FM300300 06005KT P6SM FEW040
     FM301400 24008KT P6SM SCT040
     FM302200 06006KT P6SM SCT025 SCT040
      AMD NOT SKED=



000
FTUS42 TJSJ 292100 AAA
TAFJSJ
TAF AMD
TJSJ 292108Z 2921/3018 08015KT P6SM FEW025 SCT070
     FM292200 11003KT P6SM FEW035
     FM301300 07009KT P6SM FEW035=



000
FTUS42 TJSJ 292100 AAA
TAFJSJ
TAF AMD
TJSJ 292108Z 2921/3018 08015KT P6SM FEW025 SCT070
     FM292200 11003KT P6SM FEW035
     FM301300 07009KT P6SM FEW035=



000
FTUS42 TJSJ 291900 AAA
TAFJBQ
TAF AMD
TJBQ 291928Z 2919/3018 07012KT P6SM VCSH SCT025 BKN060
     FM292300 11003KT P6SM FEW030
     FM301300 05011KT P6SM FEW035
      AMD NOT SKED 3002/3011=



000
FTUS42 TJSJ 291900 AAA
TAFJBQ
TAF AMD
TJBQ 291928Z 2919/3018 07012KT P6SM VCSH SCT025 BKN060
     FM292300 11003KT P6SM FEW030
     FM301300 05011KT P6SM FEW035
      AMD NOT SKED 3002/3011=



000
FTUS42 TJSJ 291700
TAFKPK
TAF
TKPK 291722Z 2918/3018 11011KT P6SM VCSH SCT024
     FM292200 08010KT P6SM FEW020
      AMD NOT SKED 3002/3011=



000
FTUS42 TJSJ 291700
TAFIST
TAF
TIST 291722Z 2918/3018 13010KT P6SM FEW035
     FM292200 09008KT P6SM FEW030
     FM301300 14009KT P6SM FEW030
      AMD NOT SKED=



000
FTUS42 TJSJ 291700
TAFJMZ
TAF
TJMZ 291722Z 2918/3018 27008KT P6SM VCSH SCT040
     FM292130 07005KT P6SM FEW040
     FM301400 24008KT P6SM SCT040
      AMD NOT SKED=



000
FTUS42 TJSJ 291700
TAFISX
TAF
TISX 291722Z 2918/3018 12010KT P6SM FEW035
     FM292300 05004KT P6SM FEW030
     FM301300 12009KT P6SM FEW030
      AMD NOT SKED=



000
FTUS42 TJSJ 291700
TAFJSJ
TAF
TJSJ 291722Z 2918/3018 13011KT P6SM VCSH SCT045
      TEMPO 2918/2921 07013KT
     FM292200 11003KT P6SM FEW035
     FM301300 07009KT P6SM FEW035=



000
FTUS42 TJSJ 291700
TAFJBQ
TAF
TJBQ 291722Z 2918/3018 04012KT P6SM VCSH SCT040
     FM292300 11003KT P6SM FEW030
     FM301300 05011KT P6SM FEW035
      AMD NOT SKED 3002/3011=



000
FTUS42 TJSJ 291700
TAFNCM
TAF
TNCM 291722Z 2918/3018 13011KT P6SM VCSH SCT024
     FM292200 11010KT P6SM FEW020=



000
FTUS42 TJSJ 291700
TAFJPS
TAF
TJPS 291722Z 2918/3018 16010KT P6SM FEW030
     FM292200 05004KT P6SM FEW030
     FM301330 16010KT P6SM FEW030
      AMD NOT SKED TIL 300300=



000
FTUS42 TJSJ 291700
TAFKPK
TAF
TKPK 291722Z 2918/3018 11011KT P6SM VCSH SCT024
     FM292200 08010KT P6SM FEW020
      AMD NOT SKED 3002/3011=



000
FTUS42 TJSJ 291700
TAFISX
TAF
TISX 291722Z 2918/3018 12010KT P6SM FEW035
     FM292300 05004KT P6SM FEW030
     FM301300 12009KT P6SM FEW030
      AMD NOT SKED=



000
FTUS42 TJSJ 291700
TAFIST
TAF
TIST 291722Z 2918/3018 13010KT P6SM FEW035
     FM292200 09008KT P6SM FEW030
     FM301300 14009KT P6SM FEW030
      AMD NOT SKED=



000
FTUS42 TJSJ 291700
TAFJSJ
TAF
TJSJ 291722Z 2918/3018 13011KT P6SM VCSH SCT045
      TEMPO 2918/2921 07013KT
     FM292200 11003KT P6SM FEW035
     FM301300 07009KT P6SM FEW035=



000
FTUS42 TJSJ 291700
TAFNCM
TAF
TNCM 291722Z 2918/3018 13011KT P6SM VCSH SCT024
     FM292200 11010KT P6SM FEW020=



000
FTUS42 TJSJ 291700
TAFJMZ
TAF
TJMZ 291722Z 2918/3018 27008KT P6SM VCSH SCT040
     FM292130 07005KT P6SM FEW040
     FM301400 24008KT P6SM SCT040
      AMD NOT SKED=



000
FTUS42 TJSJ 291700
TAFJPS
TAF
TJPS 291722Z 2918/3018 16010KT P6SM FEW030
     FM292200 05004KT P6SM FEW030
     FM301330 16010KT P6SM FEW030
      AMD NOT SKED TIL 300300=



000
FTUS42 TJSJ 291700
TAFJBQ
TAF
TJBQ 291722Z 2918/3018 04012KT P6SM VCSH SCT040
     FM292300 11003KT P6SM FEW030
     FM301300 05011KT P6SM FEW035
      AMD NOT SKED 3002/3011=



000
FTUS42 TJSJ 291600 AAA
TAFJSJ
TAF AMD
TJSJ 291606Z 2916/3012 07014KT P6SM VCSH SCT040
     FM292200 10006KT P6SM FEW035=



000
FTUS42 TJSJ 291600 AAA
TAFJSJ
TAF AMD
TJSJ 291606Z 2916/3012 07014KT P6SM VCSH SCT040
     FM292200 10006KT P6SM FEW035=



000
FTUS42 TJSJ 291100
TAFJMZ
TAF
TJMZ 291120Z 2912/3012 VRB03KT P6SM FEW030
     FM291530 27010KT P6SM VCSH SCT025 BKN040
     FM292300 07005KT P6SM FEW030 SCT060
      AMD NOT SKED=



000
FTUS42 TJSJ 291100
TAFJSJ
TAF
TJSJ 291120Z 2912/3012 12004KT P6SM FEW025 SCT040
     FM291450 07014KT P6SM SCT030 SCT050
     FM292200 10006KT P6SM FEW035=



000
FTUS42 TJSJ 291100
TAFJSJ
TAF
TJSJ 291120Z 2912/3012 12004KT P6SM FEW025 SCT040
     FM291450 07014KT P6SM SCT030 SCT050
     FM292200 10006KT P6SM FEW035=



000
FTUS42 TJSJ 291100
TAFNCM
TAF
TNCM 291120Z 2912/3012 10010KT P6SM VCSH SCT019 SCT035
     FM291400 12014KT P6SM FEW024
     FM292300 09010KT P6SM SCT020=



000
FTUS42 TJSJ 291100
TAFKPK
TAF
TKPK 291120Z 2912/3012 08009KT P6SM VCSH SCT019 SCT035
     FM291400 09014KT P6SM FEW024
     FM292300 07009KT P6SM SCT020
      AMD NOT SKED 3002/3011=



000
FTUS42 TJSJ 291100
TAFIST
TAF
TIST 291120Z 2912/3012 09011KT P6SM FEW025 SCT040
     FM291430 13012G19KT P6SM SCT030
     FM292300 09009KT P6SM FEW030
      AMD NOT SKED=



000
FTUS42 TJSJ 291100
TAFJMZ
TAF
TJMZ 291120Z 2912/3012 VRB03KT P6SM FEW030
     FM291530 27010KT P6SM VCSH SCT025 BKN040
     FM292300 07005KT P6SM FEW030 SCT060
      AMD NOT SKED=



000
FTUS42 TJSJ 291100
TAFNCM
TAF
TNCM 291120Z 2912/3012 10010KT P6SM VCSH SCT019 SCT035
     FM291400 12014KT P6SM FEW024
     FM292300 09010KT P6SM SCT020=



000
FTUS42 TJSJ 291100
TAFISX
TAF
TISX 291120Z 2912/3012 09011KT P6SM FEW025 SCT040
     FM291430 11014G19KT P6SM SCT030
     FM292300 07007KT P6SM FEW030
      AMD NOT SKED=



000
FTUS42 TJSJ 291100
TAFKPK
TAF
TKPK 291120Z 2912/3012 08009KT P6SM VCSH SCT019 SCT035
     FM291400 09014KT P6SM FEW024
     FM292300 07009KT P6SM SCT020
      AMD NOT SKED 3002/3011=



000
FTUS42 TJSJ 291100
TAFIST
TAF
TIST 291120Z 2912/3012 09011KT P6SM FEW025 SCT040
     FM291430 13012G19KT P6SM SCT030
     FM292300 09009KT P6SM FEW030
      AMD NOT SKED=



000
FTUS42 TJSJ 291100
TAFJBQ
TAF
TJBQ 291120Z 2912/3012 10003KT P6SM SKC
     FM291400 08011KT P6SM SCT025
     FM291800 06012G20KT P6SM VCSH SCT025 BKN050
     FM292300 09008KT P6SM FEW025 SCT060
      AMD NOT SKED 3002/3011=



000
FTUS42 TJSJ 291100
TAFJPS
TAF
TJPS 291120Z 2912/3012 07004KT P6SM VCSH SCT025 SCT050
     FM291500 15012KT P6SM FEW030 SCT050
     FM292330 07006KT P6SM FEW030
      AMD NOT SKED TIL 300300=



000
FTUS42 TJSJ 291100
TAFJBQ
TAF
TJBQ 291120Z 2912/3012 10003KT P6SM SKC
     FM291400 08011KT P6SM SCT025
     FM291800 06012G20KT P6SM VCSH SCT025 BKN050
     FM292300 09008KT P6SM FEW025 SCT060
      AMD NOT SKED 3002/3011=



000
FTUS42 TJSJ 291100
TAFISX
TAF
TISX 291120Z 2912/3012 09011KT P6SM FEW025 SCT040
     FM291430 11014G19KT P6SM SCT030
     FM292300 07007KT P6SM FEW030
      AMD NOT SKED=



000
FTUS42 TJSJ 291100
TAFJPS
TAF
TJPS 291120Z 2912/3012 07004KT P6SM VCSH SCT025 SCT050
     FM291500 15012KT P6SM FEW030 SCT050
     FM292330 07006KT P6SM FEW030
      AMD NOT SKED TIL 300300=



000
FTUS42 TJSJ 290500 RRA
TAFJSJ
TAF
TJSJ 290539Z 2906/3006 VRB03KT P6SM FEW030
     FM290750 11004KT P6SM VCSH FEW025 SCT035
     FM291400 07014KT P6SM FEW030 SCT050
     FM292200 10006KT P6SM FEW035=



000
FTUS42 TJSJ 290500 RRA
TAFJPS
TAF
TJPS 290539Z 2906/3006 06007KT P6SM VCSH SCT025 SCT050
     FM291500 15012KT P6SM FEW030 SCT050
     FM292330 07006KT P6SM FEW030=



000
FTUS42 TJSJ 290500 RRA
TAFJMZ
TAF
TJMZ 290539Z 2906/3006 VRB02KT P6SM SKC
     FM291000 07005KT P6SM FEW030
     FM291530 27010KT P6SM VCSH SCT025 BKN040
     FM292300 07005KT P6SM FEW030 SCT060
      AMD NOT SKED TIL 291100=



000
FTUS42 TJSJ 290500 RRA
TAFJBQ
TAF
TJBQ 290539Z 2906/3006 12004KT P6SM SKC
     FM291400 08013KT P6SM SCT025
     FM291800 06012G22KT P6SM VCSH SCT025 BKN050
     FM292300 09008KT P6SM FEW025 SCT060
      AMD NOT SKED TIL 291100=



000
FTUS42 TJSJ 290500 RRA
TAFIST
TAF
TIST 290539Z 2906/3006 09011KT P6SM VCSH FEW025 SCT040
     FM291430 13012G19KT P6SM SCT030
     FM292300 09009KT P6SM FEW030=



000
FTUS42 TJSJ 290500 RRA
TAFKPK
TAF
TKPK 290539Z 2906/3006 08010KT P6SM FEW020
     FM290750 06007KT P6SM VCSH SCT019 SCT035
     FM291400 09014KT P6SM FEW024
      AMD NOT SKED TIL 291100=



000
FTUS42 TJSJ 290500 RRA
TAFNCM
TAF
TNCM 290539Z 2906/3006 11011KT P6SM FEW020
     FM290750 09009KT P6SM VCSH SCT019 SCT035
     FM291400 12014KT P6SM SCT024=



000
FTUS42 TJSJ 290500 RRA
TAFISX
TAF
TISX 290539Z 2906/3006 09011KT P6SM VCSH FEW025 SCT040
     FM291430 11014G19KT P6SM SCT030
     FM292300 07007KT P6SM FEW030=



000
FTUS42 TJSJ 290500 RRA
TAFKPK
TAF
TKPK 290539Z 2906/3006 08010KT P6SM FEW020
     FM290750 06007KT P6SM VCSH SCT019 SCT035
     FM291400 09014KT P6SM FEW024
      AMD NOT SKED TIL 291100=



000
FTUS42 TJSJ 290500 RRA
TAFNCM
TAF
TNCM 290539Z 2906/3006 11011KT P6SM FEW020
     FM290750 09009KT P6SM VCSH SCT019 SCT035
     FM291400 12014KT P6SM SCT024=



000
FTUS42 TJSJ 290500 RRA
TAFJPS
TAF
TJPS 290539Z 2906/3006 06007KT P6SM VCSH SCT025 SCT050
     FM291500 15012KT P6SM FEW030 SCT050
     FM292330 07006KT P6SM FEW030=



000
FTUS42 TJSJ 290500 RRA
TAFJSJ
TAF
TJSJ 290539Z 2906/3006 VRB03KT P6SM FEW030
     FM290750 11004KT P6SM VCSH FEW025 SCT035
     FM291400 07014KT P6SM FEW030 SCT050
     FM292200 10006KT P6SM FEW035=



000
FTUS42 TJSJ 290500 RRA
TAFJMZ
TAF
TJMZ 290539Z 2906/3006 VRB02KT P6SM SKC
     FM291000 07005KT P6SM FEW030
     FM291530 27010KT P6SM VCSH SCT025 BKN040
     FM292300 07005KT P6SM FEW030 SCT060
      AMD NOT SKED TIL 291100=



000
FTUS42 TJSJ 290500 RRA
TAFISX
TAF
TISX 290539Z 2906/3006 09011KT P6SM VCSH FEW025 SCT040
     FM291430 11014G19KT P6SM SCT030
     FM292300 07007KT P6SM FEW030=



000
FTUS42 TJSJ 290500 RRA
TAFIST
TAF
TIST 290539Z 2906/3006 09011KT P6SM VCSH FEW025 SCT040
     FM291430 13012G19KT P6SM SCT030
     FM292300 09009KT P6SM FEW030=



000
FTUS42 TJSJ 290500 RRA
TAFJBQ
TAF
TJBQ 290539Z 2906/3006 12004KT P6SM SKC
     FM291400 08013KT P6SM SCT025
     FM291800 06012G22KT P6SM VCSH SCT025 BKN050
     FM292300 09008KT P6SM FEW025 SCT060
      AMD NOT SKED TIL 291100=



000
FTUS42 TJSJ 282300
TAFJPS
TAF
TJPS 282338Z 2900/2924 07009KT P6SM FEW030
     FM291500 13012KT P6SM FEW030 SCT060
     FM292330 09007KT P6SM FEW030 SCT060
      AMD NOT SKED TIL 290300=



000
FTUS42 TJSJ 282300
TAFKPK
TAF
TKPK 282338Z 2900/2924 08012KT P6SM FEW022
     FM290300 08009KT P6SM SCT019
     FM291400 09014KT P6SM FEW024
      AMD NOT SKED 2902/2911=



000
FTUS42 TJSJ 282300
TAFJBQ
TAF
TJBQ 282338Z 2900/2924 09010KT P6SM FEW025 SCT050
     FM290200 12005KT P6SM SKC
     FM291400 08013KT P6SM SCT025
     FM292300 09008KT P6SM SCT025
      AMD NOT SKED 2902/2911=



000
FTUS42 TJSJ 282300
TAFJMZ
TAF
TJMZ 282338Z 2900/2924 11007KT P6SM SCT030
     FM291530 27010KT P6SM SCT025 BKN040
     FM292200 06006KT P6SM SCT025 SCT040
      AMD NOT SKED TIL 291500=



000
FTUS42 TJSJ 282300
TAFJSJ
TAF
TJSJ 282338Z 2900/2924 11010KT P6SM FEW030
     FM291300 08013KT P6SM SCT025
     FM292200 10006KT P6SM SCT030=



000
FTUS42 TJSJ 282300
TAFIST
TAF
TIST 282338Z 2900/2924 10011KT P6SM FEW030
     FM291300 13012KT P6SM SCT025
     FM292300 09008KT P6SM FEW025=



000
FTUS42 TJSJ 282300
TAFISX
TAF
TISX 282338Z 2900/2924 08010KT P6SM FEW030
     FM291300 11013KT P6SM SCT025
     FM292300 06006KT P6SM FEW025=



000
FTUS42 TJSJ 282300
TAFNCM
TAF
TNCM 282338Z 2900/2924 12013KT P6SM FEW020
     FM290300 09010KT P6SM FEW022
     FM291400 12014KT P6SM SCT024=



000
FTUS42 TJSJ 282300
TAFKPK
TAF
TKPK 282338Z 2900/2924 08012KT P6SM FEW022
     FM290300 08009KT P6SM SCT019
     FM291400 09014KT P6SM FEW024
      AMD NOT SKED 2902/2911=



000
FTUS42 TJSJ 282300
TAFJPS
TAF
TJPS 282338Z 2900/2924 07009KT P6SM FEW030
     FM291500 13012KT P6SM FEW030 SCT060
     FM292330 09007KT P6SM FEW030 SCT060
      AMD NOT SKED TIL 290300=



000
FTUS42 TJSJ 282300
TAFJBQ
TAF
TJBQ 282338Z 2900/2924 09010KT P6SM FEW025 SCT050
     FM290200 12005KT P6SM SKC
     FM291400 08013KT P6SM SCT025
     FM292300 09008KT P6SM SCT025
      AMD NOT SKED 2902/2911=



000
FTUS42 TJSJ 282300
TAFJMZ
TAF
TJMZ 282338Z 2900/2924 11007KT P6SM SCT030
     FM291530 27010KT P6SM SCT025 BKN040
     FM292200 06006KT P6SM SCT025 SCT040
      AMD NOT SKED TIL 291500=



000
FTUS42 TJSJ 282300
TAFJSJ
TAF
TJSJ 282338Z 2900/2924 11010KT P6SM FEW030
     FM291300 08013KT P6SM SCT025
     FM292200 10006KT P6SM SCT030=



000
FTUS42 TJSJ 282300
TAFIST
TAF
TIST 282338Z 2900/2924 10011KT P6SM FEW030
     FM291300 13012KT P6SM SCT025
     FM292300 09008KT P6SM FEW025=



000
FTUS42 TJSJ 282300
TAFISX
TAF
TISX 282338Z 2900/2924 08010KT P6SM FEW030
     FM291300 11013KT P6SM SCT025
     FM292300 06006KT P6SM FEW025=



000
FTUS42 TJSJ 282300
TAFNCM
TAF
TNCM 282338Z 2900/2924 12013KT P6SM FEW020
     FM290300 09010KT P6SM FEW022
     FM291400 12014KT P6SM SCT024=



000
FTUS42 TJSJ 281700
TAFISX
TAF
TISX 281740Z 2818/2918 11014G20KT P6SM SCT030
     FM282300 08010KT P6SM FEW030
     FM291300 11013KT P6SM SCT025=



000
FTUS42 TJSJ 281700
TAFIST
TAF
TIST 281740Z 2818/2918 13012G18KT P6SM SCT030
     FM282300 09011KT P6SM FEW030
     FM291300 13012KT P6SM SCT025=



000
FTUS42 TJSJ 281700
TAFJSJ
TAF
TJSJ 281740Z 2818/2918 08013G24KT P6SM FEW035 SCT050
     FM282200 11011KT P6SM FEW030
     FM291300 08012KT P6SM SCT025=



000
FTUS42 TJSJ 281700
TAFJBQ
TAF
TJBQ 281740Z 2818/2918 06014KT P6SM VCSH SCT025 BKN050
     FM282200 09010KT P6SM FEW030 SCT070
     FM291400 08013KT P6SM SCT025
      AMD NOT SKED 2902/2911=



000
FTUS42 TJSJ 281700
TAFJMZ
TAF
TJMZ 281740Z 2818/2918 15010KT P6SM SCT020 SCT040
     FM282200 11007KT P6SM SCT030
     FM291530 27010KT P6SM SCT025 BKN040=



000
FTUS42 TJSJ 281700
TAFJPS
TAF
TJPS 281740Z 2818/2918 13012G19KT P6SM SCT030
     FM282300 07009KT P6SM FEW030
     FM291500 13012KT P6SM FEW030 SCT060
      AMD NOT SKED TIL 290300=



000
FTUS42 TJSJ 281700
TAFNCM
TAF
TNCM 281740Z 2818/2918 12013KT P6SM FEW024
     FM290300 09010KT P6SM SCT018
     FM291400 12014KT P6SM FEW024=



000
FTUS42 TJSJ 281700
TAFKPK
TAF
TKPK 281740Z 2818/2918 12013KT P6SM FEW024
     FM290300 08010KT P6SM SCT019
     FM291400 09014KT P6SM FEW024
      AMD NOT SKED 2902/2911=



000
FTUS42 TJSJ 281700
TAFJPS
TAF
TJPS 281740Z 2818/2918 13012G19KT P6SM SCT030
     FM282300 07009KT P6SM FEW030
     FM291500 13012KT P6SM FEW030 SCT060
      AMD NOT SKED TIL 290300=



000
FTUS42 TJSJ 281700
TAFKPK
TAF
TKPK 281740Z 2818/2918 12013KT P6SM FEW024
     FM290300 08010KT P6SM SCT019
     FM291400 09014KT P6SM FEW024
      AMD NOT SKED 2902/2911=



000
FTUS42 TJSJ 281700
TAFJMZ
TAF
TJMZ 281740Z 2818/2918 15010KT P6SM SCT020 SCT040
     FM282200 11007KT P6SM SCT030
     FM291530 27010KT P6SM SCT025 BKN040=



000
FTUS42 TJSJ 281700
TAFJBQ
TAF
TJBQ 281740Z 2818/2918 06014KT P6SM VCSH SCT025 BKN050
     FM282200 09010KT P6SM FEW030 SCT070
     FM291400 08013KT P6SM SCT025
      AMD NOT SKED 2902/2911=



000
FTUS42 TJSJ 281700
TAFIST
TAF
TIST 281740Z 2818/2918 13012G18KT P6SM SCT030
     FM282300 09011KT P6SM FEW030
     FM291300 13012KT P6SM SCT025=



000
FTUS42 TJSJ 281700
TAFNCM
TAF
TNCM 281740Z 2818/2918 12013KT P6SM FEW024
     FM290300 09010KT P6SM SCT018
     FM291400 12014KT P6SM FEW024=



000
FTUS42 TJSJ 281700
TAFISX
TAF
TISX 281740Z 2818/2918 11014G20KT P6SM SCT030
     FM282300 08010KT P6SM FEW030
     FM291300 11013KT P6SM SCT025=



000
FTUS42 TJSJ 281700
TAFJSJ
TAF
TJSJ 281740Z 2818/2918 08013G24KT P6SM FEW035 SCT050
     FM282200 11011KT P6SM FEW030
     FM291300 08012KT P6SM SCT025=



000
FTUS42 TJSJ 281100
TAFISX
TAF
TISX 281132Z 2812/2912 07009KT P6SM VCSH FEW025 SCT040
     FM281300 11014G20KT P6SM SCT030
     FM282300 08010KT P6SM FEW030=



000
FTUS42 TJSJ 281100
TAFJMZ
TAF
TJMZ 281132Z 2812/2912 11005KT P6SM FEW025
     FM281530 27010KT P6SM SCT020 SCT040
     FM282200 11007KT P6SM SCT030
      AMD NOT SKED TIL 281500=



000
FTUS42 TJSJ 281100
TAFJBQ
TAF
TJBQ 281132Z 2812/2912 12005KT P6SM FEW025
     FM281430 08011KT P6SM SCT025 SCT040
     FM281800 06014G20KT P6SM VCSH SCT025 BKN050
     FM282200 09010KT P6SM FEW030 SCT070=



000
FTUS42 TJSJ 281100
TAFJPS
TAF
TJPS 281132Z 2812/2912 07004KT P6SM VCSH FEW020 SCT050
     FM281430 13012G19KT P6SM SCT030
     FM282300 07009KT P6SM FEW030
      AMD NOT SKED TIL 290300=



000
FTUS42 TJSJ 281100
TAFIST
TAF
TIST 281132Z 2812/2912 09010KT P6SM VCSH FEW025 SCT040
     FM281300 13014G20KT P6SM SCT030
     FM282300 09011KT P6SM FEW030=



000
FTUS42 TJSJ 281100
TAFJSJ
TAF
TJSJ 281132Z 2812/2912 12004KT P6SM VCSH FEW025 SCT040
     FM281430 09011KT P6SM SCT030
     FM281600 08014G24KT P6SM FEW035 SCT050
     FM282200 11011KT P6SM FEW030=



000
FTUS42 TJSJ 281100
TAFJBQ
TAF
TJBQ 281132Z 2812/2912 12005KT P6SM FEW025
     FM281430 08011KT P6SM SCT025 SCT040
     FM281800 06014G20KT P6SM VCSH SCT025 BKN050
     FM282200 09010KT P6SM FEW030 SCT070=



000
FTUS42 TJSJ 281100
TAFNCM
TAF
TNCM 281132Z 2812/2912 09011KT P6SM VCSH FEW018 SCT030
     FM281400 12014KT P6SM FEW024
     FM290300 09010KT P6SM SCT018=



000
FTUS42 TJSJ 281100
TAFISX
TAF
TISX 281132Z 2812/2912 07009KT P6SM VCSH FEW025 SCT040
     FM281300 11014G20KT P6SM SCT030
     FM282300 08010KT P6SM FEW030=



000
FTUS42 TJSJ 281100
TAFKPK
TAF
TKPK 281132Z 2812/2912 07010KT P6SM VCSH FEW018 SCT030
     FM281330 09014KT P6SM FEW024
     FM290300 08010KT P6SM SCT019=



000
FTUS42 TJSJ 281100
TAFKPK
TAF
TKPK 281132Z 2812/2912 07010KT P6SM VCSH FEW018 SCT030
     FM281330 09014KT P6SM FEW024
     FM290300 08010KT P6SM SCT019=



000
FTUS42 TJSJ 281100
TAFJMZ
TAF
TJMZ 281132Z 2812/2912 11005KT P6SM FEW025
     FM281530 27010KT P6SM SCT020 SCT040
     FM282200 11007KT P6SM SCT030
      AMD NOT SKED TIL 281500=



000
FTUS42 TJSJ 281100
TAFJSJ
TAF
TJSJ 281132Z 2812/2912 12004KT P6SM VCSH FEW025 SCT040
     FM281430 09011KT P6SM SCT030
     FM281600 08014G24KT P6SM FEW035 SCT050
     FM282200 11011KT P6SM FEW030=



000
FTUS42 TJSJ 281100
TAFIST
TAF
TIST 281132Z 2812/2912 09010KT P6SM VCSH FEW025 SCT040
     FM281300 13014G20KT P6SM SCT030
     FM282300 09011KT P6SM FEW030=



000
FTUS42 TJSJ 281100
TAFNCM
TAF
TNCM 281132Z 2812/2912 09011KT P6SM VCSH FEW018 SCT030
     FM281400 12014KT P6SM FEW024
     FM290300 09010KT P6SM SCT018=



000
FTUS42 TJSJ 281100
TAFJPS
TAF
TJPS 281132Z 2812/2912 07004KT P6SM VCSH FEW020 SCT050
     FM281430 13012G19KT P6SM SCT030
     FM282300 07009KT P6SM FEW030
      AMD NOT SKED TIL 290300=



000
FTUS42 TJSJ 280500
TAFNCM
TAF
TNCM 280520Z 2806/2906 09011KT P6SM VCSH FEW018 SCT030
     FM281330 12014KT P6SM FEW024=



000
FTUS42 TJSJ 280500
TAFKPK
TAF
TKPK 280520Z 2806/2906 07009KT P6SM VCSH FEW018 SCT030
     FM281330 09013KT P6SM FEW024
      AMD NOT SKED TIL 281100=



000
FTUS42 TJSJ 280500
TAFISX
TAF
TISX 280520Z 2806/2906 08008KT P6SM FEW025
     FM281100 08008KT P6SM VCSH SCT023
     FM281300 11013G21KT P6SM SCT025
     FM282300 09010KT P6SM FEW025=



000
FTUS42 TJSJ 280500
TAFJPS
TAF
TJPS 280520Z 2806/2906 00000KT P6SM FEW020
     FM281530 13010G18KT P6SM FEW030
     FM282300 09010KT P6SM FEW020=



000
FTUS42 TJSJ 280500
TAFJBQ
TAF
TJBQ 280520Z 2806/2906 12005KT P6SM FEW025
     FM281330 07015KT P6SM SCT025 SCT040
     FM281800 08014KT P6SM VCSH SCT030 BKN045 BKN070
      AMD NOT SKED TIL 281100=



000
FTUS42 TJSJ 280500
TAFNCM
TAF
TNCM 280520Z 2806/2906 09011KT P6SM VCSH FEW018 SCT030
     FM281330 12014KT P6SM FEW024=



000
FTUS42 TJSJ 280500
TAFKPK
TAF
TKPK 280520Z 2806/2906 07009KT P6SM VCSH FEW018 SCT030
     FM281330 09013KT P6SM FEW024
      AMD NOT SKED TIL 281100=



000
FTUS42 TJSJ 280500
TAFJMZ
TAF
TJMZ 280520Z 2806/2906 11005KT P6SM FEW025
     FM281530 27010KT P6SM SCT020 SCT040
     FM282200 11007KT P6SM SCT030
      AMD NOT SKED TIL 281500=



000
FTUS42 TJSJ 280500
TAFIST
TAF
TIST 280520Z 2806/2906 10009KT P6SM FEW025
     FM281300 13013G20KT P6SM SCT025
     FM282300 09012KT P6SM FEW026=



000
FTUS42 TJSJ 280500
TAFJBQ
TAF
TJBQ 280520Z 2806/2906 12005KT P6SM FEW025
     FM281330 07015KT P6SM SCT025 SCT040
     FM281800 08014KT P6SM VCSH SCT030 BKN045 BKN070
      AMD NOT SKED TIL 281100=



000
FTUS42 TJSJ 280500
TAFISX
TAF
TISX 280520Z 2806/2906 08008KT P6SM FEW025
     FM281100 08008KT P6SM VCSH SCT023
     FM281300 11013G21KT P6SM SCT025
     FM282300 09010KT P6SM FEW025=



000
FTUS42 TJSJ 280500
TAFJSJ
TAF
TJSJ 280520Z 2806/2906 VRB05KT P6SM FEW030
     FM281330 11013G24KT P6SM FEW030 FEW060
     FM281600 08015G25KT P6SM FEW035 SCT050
     FM282200 09012KT P6SM FEW035=



000
FTUS42 TJSJ 280500
TAFJPS
TAF
TJPS 280520Z 2806/2906 00000KT P6SM FEW020
     FM281530 13010G18KT P6SM FEW030
     FM282300 09010KT P6SM FEW020=



000
FTUS42 TJSJ 280500
TAFJMZ
TAF
TJMZ 280520Z 2806/2906 11005KT P6SM FEW025
     FM281530 27010KT P6SM SCT020 SCT040
     FM282200 11007KT P6SM SCT030
      AMD NOT SKED TIL 281500=



000
FTUS42 TJSJ 280500
TAFJSJ
TAF
TJSJ 280520Z 2806/2906 VRB05KT P6SM FEW030
     FM281330 11013G24KT P6SM FEW030 FEW060
     FM281600 08015G25KT P6SM FEW035 SCT050
     FM282200 09012KT P6SM FEW035=



000
FTUS42 TJSJ 280500
TAFIST
TAF
TIST 280520Z 2806/2906 10009KT P6SM FEW025
     FM281300 13013G20KT P6SM SCT025
     FM282300 09012KT P6SM FEW026=



000
FTUS42 TJSJ 272300
TAFJSJ
TAF
TJSJ 272330Z 2800/2824 VRB05KT P6SM FEW030
     FM281330 11013G24KT P6SM FEW030 FEW060
     FM281600 08015G25KT P6SM FEW035 SCT050
     FM282200 09012KT P6SM FEW035=



000
FTUS42 TJSJ 272300
TAFIST
TAF
TIST 272330Z 2800/2824 10009KT P6SM FEW025
     FM281300 13013G20KT P6SM SCT025
     FM282300 09012KT P6SM FEW026=



000
FTUS42 TJSJ 272300
TAFNCM
TAF
TNCM 272330Z 2800/2824 09011KT P6SM SCT022=



000
FTUS42 TJSJ 272300
TAFNCM
TAF
TNCM 272330Z 2800/2824 09011KT P6SM SCT022=



000
FTUS42 TJSJ 272300
TAFJBQ
TAF
TJBQ 272330Z 2800/2824 10009KT P6SM BKN050 OVC060
     FM280500 12005KT P6SM FEW025
     FM281330 07015KT P6SM SCT025 SCT040
     FM281800 08014KT P6SM VCSH SCT030 BKN045 BKN070
      AMD NOT SKED 2802/2811=



000
FTUS42 TJSJ 272300
TAFJPS
TAF
TJPS 272330Z 2800/2824 08008KT P6SM FEW020
     FM280230 00000KT P6SM FEW020
     FM281530 13010G18KT P6SM FEW030
     FM282300 09010KT P6SM FEW020
      AMD NOT SKED TIL 280300=



000
FTUS42 TJSJ 272300
TAFISX
TAF
TISX 272330Z 2800/2824 08008KT P6SM FEW025
     FM281100 08008KT P6SM VCSH SCT023
     FM281300 11013G21KT P6SM SCT025
     FM282300 09010KT P6SM FEW025=



000
FTUS42 TJSJ 272300
TAFKPK
TAF
TKPK 272330Z 2800/2824 08012KT P6SM SCT021
      AMD NOT SKED 2802/2811=



000
FTUS42 TJSJ 272300
TAFJBQ
TAF
TJBQ 272330Z 2800/2824 10009KT P6SM BKN050 OVC060
     FM280500 12005KT P6SM FEW025
     FM281330 07015KT P6SM SCT025 SCT040
     FM281800 08014KT P6SM VCSH SCT030 BKN045 BKN070
      AMD NOT SKED 2802/2811=



000
FTUS42 TJSJ 272300
TAFJMZ
TAF
TJMZ 272330Z 2800/2824 11005KT P6SM FEW025
     FM281530 27010KT P6SM SCT020 SCT040
     FM282200 11007KT P6SM SCT030
      AMD NOT SKED TIL 281500=



000
FTUS42 TJSJ 272300
TAFJPS
TAF
TJPS 272330Z 2800/2824 08008KT P6SM FEW020
     FM280230 00000KT P6SM FEW020
     FM281530 13010G18KT P6SM FEW030
     FM282300 09010KT P6SM FEW020
      AMD NOT SKED TIL 280300=



000
FTUS42 TJSJ 272300
TAFKPK
TAF
TKPK 272330Z 2800/2824 08012KT P6SM SCT021
      AMD NOT SKED 2802/2811=



000
FTUS42 TJSJ 272300
TAFISX
TAF
TISX 272330Z 2800/2824 08008KT P6SM FEW025
     FM281100 08008KT P6SM VCSH SCT023
     FM281300 11013G21KT P6SM SCT025
     FM282300 09010KT P6SM FEW025=



000
FTUS42 TJSJ 272300
TAFJMZ
TAF
TJMZ 272330Z 2800/2824 11005KT P6SM FEW025
     FM281530 27010KT P6SM SCT020 SCT040
     FM282200 11007KT P6SM SCT030
      AMD NOT SKED TIL 281500=



000
FTUS42 TJSJ 272300
TAFJSJ
TAF
TJSJ 272330Z 2800/2824 VRB05KT P6SM FEW030
     FM281330 11013G24KT P6SM FEW030 FEW060
     FM281600 08015G25KT P6SM FEW035 SCT050
     FM282200 09012KT P6SM FEW035=



000
FTUS42 TJSJ 272300
TAFIST
TAF
TIST 272330Z 2800/2824 10009KT P6SM FEW025
     FM281300 13013G20KT P6SM SCT025
     FM282300 09012KT P6SM FEW026=



000
FTUS42 TJSJ 272100 AAB
TAFJBQ
TAF AMD
TJBQ 272119Z 2721/2818 09010KT P6SM BKN050 OVC060
     FM280200 11008KT P6SM FEW060
     FM281330 07015KT P6SM SCT025 SCT040
      AMD NOT SKED 2802/2811=



000
FTUS42 TJSJ 272100 AAB
TAFJBQ
TAF AMD
TJBQ 272119Z 2721/2818 09010KT P6SM BKN050 OVC060
     FM280200 11008KT P6SM FEW060
     FM281330 07015KT P6SM SCT025 SCT040
      AMD NOT SKED 2802/2811=



000
FTUS42 TJSJ 271800 AAA
TAFJBQ
TAF AMD
TJBQ 271829Z 2718/2818 07015KT P6SM VCSH SCT025 SCT040
      TEMPO 2718/2720 -SHRA SCT020 BKN030
     FM272230 09010KT P6SM SCT025
     FM281330 07015KT P6SM SCT025 SCT040
      AMD NOT SKED 2802/2811=



000
FTUS42 TJSJ 271800 AAA
TAFJMZ
TAF AMD
TJMZ 271823Z 2718/2818 27010KT P6SM BKN030
     FM272030 09005KT P6SM FEW025
     FM281530 27010KT P6SM SCT020 SCT040
      AMD NOT SKED 2722/2815=



000
FTUS42 TJSJ 271800 AAA
TAFJMZ
TAF AMD
TJMZ 271823Z 2718/2818 27010KT P6SM BKN030
     FM272030 09005KT P6SM FEW025
     FM281530 27010KT P6SM SCT020 SCT040
      AMD NOT SKED 2722/2815=



000
FTUS42 TJSJ 271800 CCB
TAFKPK
TAF COR
TKPK 271814Z 2718/2818 07015KT P6SM FEW020
     FM272300 08010KT P6SM SCT020
      AMD NOT SKED 2802/2811=



000
FTUS42 TJSJ 271800 CCB
TAFKPK
TAF COR
TKPK 271814Z 2718/2818 07015KT P6SM FEW020
     FM272300 08010KT P6SM SCT020
      AMD NOT SKED 2802/2811=



000
FTUS42 TJSJ 271800 CCA
TAFKPK
TAF COR
TKPK 271805Z 2718/2818 08015KT P6SM FEW020
     FM272300 08010KT P6SM SCT020
      AMD NOT SKED 2802/2811=



000
FTUS42 TJSJ 271700
TAFJBQ
TAF
TJBQ 271740Z 2718/2818 07015KT P6SM VCSH SCT025 SCT040
      TEMPO 2718/2720 -SHRA SCT020 BKN040
     FM272230 09010KT P6SM SCT025
     FM281330 07015KT P6SM SCT025 SCT040
      AMD NOT SKED 2802/2811=



000
FTUS42 TJSJ 271700
TAFJSJ
TAF
TJSJ 271740Z 2718/2818 09015G20KT P6SM FEW030 SCT050
     FM272230 VRB05KT P6SM FEW025 FEW040
     FM281330 09013KT P6SM FEW030 SCT050=



000
FTUS42 TJSJ 271700
TAFIST
TAF
TIST 271740Z 2718/2818 13015G20KT P6SM SCT025
     FM272300 09008KT P6SM FEW025
     FM281300 13013KT P6SM SCT025=



000
FTUS42 TJSJ 271700
TAFJMZ
TAF
TJMZ 271740Z 2718/2818 27010KT P6SM SCT020 SCT040
     FM272230 09005KT P6SM FEW025
     FM281530 27010KT P6SM SCT020 SCT040
      AMD NOT SKED 2722/2815=



000
FTUS42 TJSJ 271700
TAFJPS
TAF
TJPS 271740Z 2718/2818 13010G15KT P6SM FEW030
     FM272230 00000KT P6SM SKC
     FM281530 13010G15KT P6SM FEW030
      AMD NOT SKED TIL 280300=



000
FTUS42 TJSJ 271700
TAFKPK
TAF
TKPK 271740Z 2718/2818 08013KT P6SM FEW020
     FM272300 08010KT P6SM SCT020
      AMD NOT SKED 2802/2811=



000
FTUS42 TJSJ 271700
TAFNCM
TAF
TNCM 271740Z 2718/2818 10013KT P6SM FEW020
     FM272300 09010KT P6SM SCT020=



000
FTUS42 TJSJ 271700
TAFISX
TAF
TISX 271740Z 2718/2818 11015G20KT P6SM SCT025
     FM272300 06008KT P6SM FEW025
     FM281300 11013KT P6SM SCT025=



000
FTUS42 TJSJ 271700
TAFNCM
TAF
TNCM 271740Z 2718/2818 10013KT P6SM FEW020
     FM272300 09010KT P6SM SCT020=



000
FTUS42 TJSJ 271700
TAFJBQ
TAF
TJBQ 271740Z 2718/2818 07015KT P6SM VCSH SCT025 SCT040
      TEMPO 2718/2720 -SHRA SCT020 BKN040
     FM272230 09010KT P6SM SCT025
     FM281330 07015KT P6SM SCT025 SCT040
      AMD NOT SKED 2802/2811=



000
FTUS42 TJSJ 271700
TAFISX
TAF
TISX 271740Z 2718/2818 11015G20KT P6SM SCT025
     FM272300 06008KT P6SM FEW025
     FM281300 11013KT P6SM SCT025=



000
FTUS42 TJSJ 271700
TAFKPK
TAF
TKPK 271740Z 2718/2818 08013KT P6SM FEW020
     FM272300 08010KT P6SM SCT020
      AMD NOT SKED 2802/2811=



000
FTUS42 TJSJ 271700
TAFJSJ
TAF
TJSJ 271740Z 2718/2818 09015G20KT P6SM FEW030 SCT050
     FM272230 VRB05KT P6SM FEW025 FEW040
     FM281330 09013KT P6SM FEW030 SCT050=



000
FTUS42 TJSJ 271700
TAFJPS
TAF
TJPS 271740Z 2718/2818 13010G15KT P6SM FEW030
     FM272230 00000KT P6SM SKC
     FM281530 13010G15KT P6SM FEW030
      AMD NOT SKED TIL 280300=



000
FTUS42 TJSJ 271700
TAFIST
TAF
TIST 271740Z 2718/2818 13015G20KT P6SM SCT025
     FM272300 09008KT P6SM FEW025
     FM281300 13013KT P6SM SCT025=



000
FTUS42 TJSJ 271700
TAFJMZ
TAF
TJMZ 271740Z 2718/2818 27010KT P6SM SCT020 SCT040
     FM272230 09005KT P6SM FEW025
     FM281530 27010KT P6SM SCT020 SCT040
      AMD NOT SKED 2722/2815=



000
FTUS42 TJSJ 271200 AAA
TAFJSJ
TAF AMD
TJSJ 271245Z 2713/2812 11005KT P6SM FEW025 SCT040
      TEMPO 2713/2715 -SHRA SCT020 BKN040
     FM271500 08013G18KT P6SM FEW030 SCT050
     FM272200 11005KT P6SM FEW025=



000
FTUS42 TJSJ 271100
TAFJMZ
TAF
TJMZ 271130Z 2712/2812 06005KT P6SM FEW030
     FM271530 24010KT P6SM SCT025 BKN040
     FM272330 06005KT P6SM FEW030
      AMD NOT SKED TIL 271500=



000
FTUS42 TJSJ 271100
TAFJMZ
TAF
TJMZ 271130Z 2712/2812 06005KT P6SM FEW030
     FM271530 24010KT P6SM SCT025 BKN040
     FM272330 06005KT P6SM FEW030
      AMD NOT SKED TIL 271500=



000
FTUS42 TJSJ 271100
TAFJBQ
TAF
TJBQ 271130Z 2712/2812 11005KT P6SM FEW025
     FM271330 09013G18KT P6SM FEW030 SCT040
     FM272230 11010KT P6SM FEW025=



000
FTUS42 TJSJ 271100
TAFIST
TAF
TIST 271130Z 2712/2812 09008KT P6SM FEW025
     FM271330 12012KT P6SM VCSH SCT025
     FM272200 08008KT P6SM FEW035=



000
FTUS42 TJSJ 271100
TAFNCM
TAF
TNCM 271130Z 2712/2812 10012KT P6SM SCT021
      TEMPO 2712/2713 BKN020
     FM271330 11015KT P6SM SCT018 SCT025
     FM272100 09010KT P6SM SCT022=



000
FTUS42 TJSJ 271100
TAFISX
TAF
TISX 271130Z 2712/2812 08011KT P6SM FEW025 SCT050
      TEMPO 2712/2714 BKN025
     FM271430 11015G22KT P6SM VCSH SCT028
     FM272200 06005KT P6SM FEW025=



000
FTUS42 TJSJ 271100
TAFJSJ
TAF
TJSJ 271130Z 2712/2812 11005KT P6SM FEW025 SCT040
     FM271330 08013G18KT P6SM FEW030 SCT050
     FM272200 11005KT P6SM FEW025=



000
FTUS42 TJSJ 271100
TAFJPS
TAF
TJPS 271130Z 2712/2812 00000KT P6SM FEW030
     FM271330 15012G18KT P6SM FEW030
     FM272300 08005KT P6SM FEW030=



000
FTUS42 TJSJ 271100
TAFKPK
TAF
TKPK 271130Z 2712/2812 08012KT P6SM FEW020
     FM271300 07015KT P6SM FEW020 FEW030
     FM272300 08010KT P6SM SCT022=



000
FTUS42 TJSJ 270500 RRA
TAFKPK
TAF
TKPK 270555Z 2706/2806 08010KT P6SM FEW020
     FM271300 08013KT P6SM FEW020 FEW030
     FM272300 05008KT P6SM SCT022
      AMD NOT SKED TIL 271100=



000
FTUS42 TJSJ 270500 RRA
TAFJPS
TAF
TJPS 270555Z 2706/2806 08005KT P6SM FEW030
     FM271330 15012G18KT P6SM FEW030
     FM272300 08005KT P6SM FEW030=



000
FTUS42 TJSJ 270500 RRA
TAFNCM
TAF
TNCM 270555Z 2706/2806 08010KT P6SM SCT021
     FM271300 11012KT P6SM SCT018 SCT025
     FM272100 09010KT P6SM SCT022=



000
FTUS42 TJSJ 270500 RRA
TAFJMZ
TAF
TJMZ 270555Z 2706/2806 06005KT P6SM FEW030 SCT040
     FM271530 24010KT P6SM SCT025 BKN040
     FM272330 06005KT P6SM SCT025 SCT040
      AMD NOT SKED TIL 271500=



000
FTUS42 TJSJ 270500 RRA
TAFJBQ
TAF
TJBQ 270555Z 2706/2806 12005KT P6SM FEW030
     FM271330 09013G18KT P6SM FEW025 SCT040
     FM272230 11010KT P6SM FEW025
      AMD NOT SKED TIL 271100=



000
FTUS42 TJSJ 270500 RRA
TAFISX
TAF
TISX 270555Z 2706/2806 08007KT P6SM FEW025 SCT050
     FM271300 11015G22KT P6SM VCSH SCT028
     FM272200 06005KT P6SM FEW025=



000
FTUS42 TJSJ 270500 RRA
TAFIST
TAF
TIST 270555Z 2706/2806 07008KT P6SM FEW025
     FM271300 12012KT P6SM VCSH SCT025
     FM271930 08009KT P6SM VCSH BKN035 BKN050
     FM272200 08008KT P6SM FEW035=



000
FTUS42 TJSJ 270500 RRA
TAFJSJ
TAF
TJSJ 270555Z 2706/2806 11005KT P6SM FEW025
     FM271330 08013G18KT P6SM VCSH FEW030 SCT050
     FM272200 09010KT P6SM FEW027=



000
FTUS42 TJSJ 270500 RRA
TAFJPS
TAF
TJPS 270555Z 2706/2806 08005KT P6SM FEW030
     FM271330 15012G18KT P6SM FEW030
     FM272300 08005KT P6SM FEW030=



000
FTUS42 TJSJ 270500 RRA
TAFIST
TAF
TIST 270555Z 2706/2806 07008KT P6SM FEW025
     FM271300 12012KT P6SM VCSH SCT025
     FM271930 08009KT P6SM VCSH BKN035 BKN050
     FM272200 08008KT P6SM FEW035=



000
FTUS42 TJSJ 270500 RRA
TAFJSJ
TAF
TJSJ 270555Z 2706/2806 11005KT P6SM FEW025
     FM271330 08013G18KT P6SM VCSH FEW030 SCT050
     FM272200 09010KT P6SM FEW027=



000
FTUS42 TJSJ 270500 RRA
TAFKPK
TAF
TKPK 270555Z 2706/2806 08010KT P6SM FEW020
     FM271300 08013KT P6SM FEW020 FEW030
     FM272300 05008KT P6SM SCT022
      AMD NOT SKED TIL 271100=



000
FTUS42 TJSJ 270500 RRA
TAFNCM
TAF
TNCM 270555Z 2706/2806 08010KT P6SM SCT021
     FM271300 11012KT P6SM SCT018 SCT025
     FM272100 09010KT P6SM SCT022=



000
FTUS42 TJSJ 270500 RRA
TAFISX
TAF
TISX 270555Z 2706/2806 08007KT P6SM FEW025 SCT050
     FM271300 11015G22KT P6SM VCSH SCT028
     FM272200 06005KT P6SM FEW025=



000
FTUS42 TJSJ 270500 RRA
TAFJBQ
TAF
TJBQ 270555Z 2706/2806 12005KT P6SM FEW030
     FM271330 09013G18KT P6SM FEW025 SCT040
     FM272230 11010KT P6SM FEW025
      AMD NOT SKED TIL 271100=



000
FTUS42 TJSJ 270500 RRA
TAFJMZ
TAF
TJMZ 270555Z 2706/2806 06005KT P6SM FEW030 SCT040
     FM271530 24010KT P6SM SCT025 BKN040
     FM272330 06005KT P6SM SCT025 SCT040
      AMD NOT SKED TIL 271500=



    US Dept of Commerce
    National Oceanic and Atmospheric Administration
    National Weather Service
    1325 East West Highway
    Silver Spring, MD 20910
    Page Author: NWS Internet Services Team
Disclaimer
Information Quality
Credits
Glossary
Privacy Policy
Freedom of Information Act (FOIA)
About Us
Career Opportunities